Terminal Aerodrome Forecast
Issued by NWS

Home | Current Version | Previous Version | Text Only | Print | Product List | Glossary On
Versions: 1 2 3 4 5 6 7 8 9 10 11 12 13 14 15 16 17 18 19
048
FTUS44 KLZK 232333
TAFLLQ
TAF
KLLQ 232333Z 2400/2424 04005KT P6SM VCSH BKN050
     FM240200 04005KT P6SM FEW050 SCT250
     FM241300 05007KT P6SM SCT250=

USA.gov is the U.S. government's official web portal to all federal, state and local government web resources and services.